Time;durP1;ratioP1;P1;durP2;ratioP2;P2;SDS_P1;SDS_P2;PMS_P1;PMS_P2;Temp;Humidity;BMP_temperature;BMP_pressure;BME280_temperature;BME280_humidity;BME280_pressure;Samples;Min_cycle;Max_cycle;Signal;HPM_P1;HPM_P2
2021/07/15 00:00:40;;;;;;;4.45;3.30;;;25.30;99.90;;;;;;5058116;28;20212;-76
2021/07/15 00:03:09;;;;;;;4.70;3.30;;;25.20;99.90;;;;;;5049914;28;20641;-75
2021/07/15 00:05:37;;;;;;;6.63;3.40;;;25.10;99.90;;;;;;5048979;28;20632;-76
2021/07/15 00:08:05;;;;;;;7.97;3.50;;;25.00;99.90;;;;;;5049429;28;20292;-71
2021/07/15 00:10:35;;;;;;;3.67;2.97;;;25.00;99.90;;;;;;5049448;28;20222;-71
2021/07/15 00:13:05;;;;;;;5.88;2.95;;;24.90;99.90;;;;;;5050114;28;20214;-71
2021/07/15 00:15:36;;;;;;;3.33;3.03;;;24.90;99.90;;;;;;5063006;28;20591;-70
2021/07/15 00:18:06;;;;;;;5.00;2.92;;;24.90;99.90;;;;;;5067300;28;20686;-71
2021/07/15 00:20:35;;;;;;;4.07;3.47;;;24.80;99.90;;;;;;5067098;28;20192;-71
2021/07/15 00:23:02;;;;;;;6.28;3.45;;;24.80;99.90;;;;;;5068188;28;20262;-71
2021/07/15 00:25:29;;;;;;;3.30;2.80;;;24.80;99.90;;;;;;5065721;28;20193;-71
2021/07/15 00:27:56;;;;;;;2.72;2.50;;;24.80;99.90;;;;;;5063559;28;20223;-71
2021/07/15 00:30:25;;;;;;;3.25;2.80;;;24.80;99.90;;;;;;5064048;28;20229;-71
2021/07/15 00:32:51;;;;;;;3.35;2.70;;;24.80;99.90;;;;;;5067477;28;20734;-72
2021/07/15 00:35:18;;;;;;;5.07;3.40;;;24.70;99.90;;;;;;5084709;28;20205;-71
2021/07/15 00:37:46;;;;;;;11.48;5.10;;;24.70;99.90;;;;;;5067171;28;20188;-72
2021/07/15 00:40:15;;;;;;;12.98;4.97;;;24.70;99.90;;;;;;5063530;28;20372;-70
2021/07/15 00:42:43;;;;;;;6.68;5.03;;;24.60;99.90;;;;;;5089661;28;20336;-71
2021/07/15 00:45:11;;;;;;;8.60;4.65;;;24.40;99.90;;;;;;5049914;28;20206;-72
2021/07/15 00:47:40;;;;;;;7.63;4.43;;;24.10;99.90;;;;;;5063770;28;20242;-72
2021/07/15 00:50:10;;;;;;;5.53;4.43;;;23.90;99.90;;;;;;5082001;28;20347;-71
2021/07/15 00:52:38;;;;;;;6.53;3.80;;;23.80;99.90;;;;;;5062065;28;20303;-71
2021/07/15 00:55:08;;;;;;;6.53;3.83;;;23.70;99.90;;;;;;5057798;28;20658;-71
2021/07/15 00:57:35;;;;;;;4.57;4.10;;;23.60;99.90;;;;;;5086803;28;20202;-72
2021/07/15 01:00:02;;;;;;;6.10;3.97;;;23.50;99.90;;;;;;5082795;28;20219;-71
2021/07/15 01:02:29;;;;;;;8.90;4.10;;;23.40;99.90;;;;;;5059788;28;20190;-72
2021/07/15 01:04:58;;;;;;;6.18;4.05;;;23.40;99.90;;;;;;5049566;28;20206;-71
2021/07/15 01:07:25;;;;;;;3.83;3.35;;;23.40;99.90;;;;;;5059740;28;20197;-71
2021/07/15 01:09:52;;;;;;;4.63;4.15;;;23.40;99.90;;;;;;5049235;28;20213;-71
2021/07/15 01:12:42;;;;;;;5.70;3.78;;;23.30;99.90;;;;;;5053333;28;20739;-71
2021/07/15 01:15:12;;;;;;;8.48;3.97;;;23.40;99.90;;;;;;5063684;28;20607;-71
2021/07/15 01:17:52;;;;;;;5.70;3.80;;;23.30;99.90;;;;;;5065853;28;20276;-71
2021/07/15 01:20:41;;;;;;;4.50;3.63;;;23.30;99.90;;;;;;5065645;28;20201;-71
2021/07/15 01:23:38;;;;;;;6.15;3.83;;;23.20;99.90;;;;;;5065434;28;20201;-71
2021/07/15 01:26:27;;;;;;;6.13;3.83;;;23.20;99.90;;;;;;5059750;28;20666;-71
2021/07/15 01:29:11;;;;;;;3.58;3.33;;;23.20;99.90;;;;;;5080998;28;20271;-71
2021/07/15 01:31:42;;;;;;;3.65;3.35;;;23.20;99.90;;;;;;5079455;28;20287;-71
2021/07/15 01:34:13;;;;;;;3.38;3.08;;;23.10;99.90;;;;;;5047834;28;20201;-71
2021/07/15 01:36:43;;;;;;;8.82;4.00;;;23.10;99.90;;;;;;5062165;28;20625;-71
2021/07/15 01:39:11;;;;;;;3.40;3.03;;;23.10;99.90;;;;;;5090926;28;20217;-71
2021/07/15 01:41:42;;;;;;;4.68;3.25;;;23.10;99.90;;;;;;5064068;28;20667;-71
2021/07/15 01:44:12;;;;;;;3.90;3.15;;;23.10;99.90;;;;;;5067622;28;20301;-72
2021/07/15 01:46:41;;;;;;;4.50;2.90;;;23.10;99.90;;;;;;5062393;28;20270;-70
2021/07/15 01:49:09;;;;;;;3.83;3.25;;;23.10;99.90;;;;;;5059740;28;20218;-71
2021/07/15 01:51:37;;;;;;;3.75;2.65;;;23.10;99.90;;;;;;5094884;28;20225;-70
2021/07/15 01:54:04;;;;;;;4.25;2.97;;;23.10;99.90;;;;;;5048545;28;20201;-71
2021/07/15 01:56:32;;;;;;;3.20;2.97;;;23.10;99.90;;;;;;5062701;28;20679;-71
2021/07/15 01:59:00;;;;;;;2.80;2.60;;;23.10;99.90;;;;;;5100642;28;20201;-71
2021/07/15 02:01:28;;;;;;;2.78;2.50;;;23.10;99.90;;;;;;5065785;28;20195;-71
2021/07/15 02:04:00;;;;;;;3.00;2.50;;;23.10;99.90;;;;;;5066845;28;20205;-71
2021/07/15 02:06:30;;;;;;;4.65;2.90;;;23.10;99.90;;;;;;5053341;28;20293;-71
2021/07/15 02:09:00;;;;;;;4.45;3.30;;;23.00;99.90;;;;;;5067151;28;20292;-71
2021/07/15 02:11:33;;;;;;;3.22;2.53;;;23.10;99.90;;;;;;5095441;28;20663;-71
2021/07/15 02:14:03;;;;;;;2.92;2.72;;;23.00;99.90;;;;;;5059095;28;20194;-71
2021/07/15 02:16:31;;;;;;;5.63;2.90;;;23.00;99.90;;;;;;5061287;28;20736;-71
2021/07/15 02:19:01;;;;;;;3.35;2.70;;;23.10;99.90;;;;;;5058913;28;20277;-71
2021/07/15 02:21:31;;;;;;;4.15;2.92;;;23.10;99.90;;;;;;5053975;28;20201;-71
2021/07/15 02:23:59;;;;;;;2.75;2.55;;;23.10;99.90;;;;;;5067355;28;20210;-71
2021/07/15 02:26:27;;;;;;;3.00;2.70;;;23.10;99.90;;;;;;5102484;28;20584;-71
2021/07/15 02:28:55;;;;;;;3.45;2.42;;;23.10;99.90;;;;;;5058705;28;20201;-71
2021/07/15 02:31:29;;;;;;;3.00;2.70;;;23.10;99.90;;;;;;5070825;28;20209;-71
2021/07/15 02:34:02;;;;;;;3.22;2.97;;;23.10;99.90;;;;;;5102512;28;20293;-70
2021/07/15 02:36:31;;;;;;;5.60;3.55;;;23.10;99.90;;;;;;5069623;28;20217;-71
2021/07/15 02:39:05;;;;;;;3.33;3.03;;;23.10;99.90;;;;;;5095874;28;20202;-70
2021/07/15 02:41:32;;;;;;;3.80;3.05;;;23.10;99.90;;;;;;5052293;28;20194;-71
2021/07/15 02:43:59;;;;;;;3.25;2.95;;;23.10;99.90;;;;;;5071047;28;20204;-71
2021/07/15 02:46:26;;;;;;;3.33;3.10;;;23.10;99.90;;;;;;5088215;28;20208;-72
2021/07/15 02:48:53;;;;;;;3.08;2.88;;;23.10;99.90;;;;;;5056432;28;20274;-71
2021/07/15 02:51:22;;;;;;;5.82;3.30;;;23.20;99.90;;;;;;5070512;28;20227;-71
2021/07/15 02:53:49;;;;;;;5.43;2.75;;;23.20;99.90;;;;;;5066093;28;20304;-71
2021/07/15 02:56:23;;;;;;;3.53;3.22;;;23.10;99.90;;;;;;5062412;28;20197;-71
2021/07/15 02:58:57;;;;;;;3.88;3.28;;;23.20;99.90;;;;;;5069467;28;20558;-71
2021/07/15 03:01:28;;;;;;;3.05;2.83;;;23.20;99.90;;;;;;5063920;28;20193;-71
2021/07/15 03:04:00;;;;;;;3.83;3.13;;;23.20;99.90;;;;;;5069183;28;20228;-71
2021/07/15 03:06:35;;;;;;;3.30;3.10;;;23.20;99.90;;;;;;5070389;28;20242;-71
2021/07/15 03:09:05;;;;;;;3.47;3.17;;;23.20;99.90;;;;;;5070537;28;20242;-71
2021/07/15 03:11:37;;;;;;;3.72;3.42;;;23.20;99.90;;;;;;5098411;28;20229;-71
2021/07/15 03:14:05;;;;;;;3.67;3.38;;;23.20;99.90;;;;;;5070379;28;20201;-71
2021/07/15 03:16:35;;;;;;;5.10;3.10;;;23.20;99.90;;;;;;5101618;28;20685;-71
2021/07/15 03:19:04;;;;;;;3.35;3.15;;;23.20;99.90;;;;;;5084629;28;20252;-71
2021/07/15 03:21:33;;;;;;;4.47;3.13;;;23.20;99.90;;;;;;5065578;28;20234;-71
2021/07/15 03:24:02;;;;;;;3.72;3.42;;;23.20;99.90;;;;;;5069138;28;20197;-71
2021/07/15 03:26:30;;;;;;;5.15;3.17;;;23.10;99.90;;;;;;5069863;28;20259;-71
2021/07/15 03:29:02;;;;;;;3.17;2.95;;;23.10;99.90;;;;;;5069336;28;20665;-71
2021/07/15 03:31:30;;;;;;;3.60;3.30;;;23.20;99.90;;;;;;5101664;28;20229;-71
2021/07/15 03:33:57;;;;;;;4.40;3.60;;;23.10;99.90;;;;;;5062700;28;20200;-71
2021/07/15 03:36:25;;;;;;;3.88;3.58;;;23.20;99.90;;;;;;5082263;28;20589;-71
2021/07/15 03:38:54;;;;;;;4.10;3.70;;;23.10;99.90;;;;;;5068431;28;20641;-71
2021/07/15 03:41:23;;;;;;;3.67;3.38;;;23.20;99.90;;;;;;5070289;28;20201;-71
2021/07/15 03:43:51;;;;;;;5.13;3.70;;;23.20;99.90;;;;;;5059357;28;20213;-71
2021/07/15 03:46:19;;;;;;;3.67;3.38;;;23.20;99.90;;;;;;5069301;28;20209;-71
2021/07/15 03:48:47;;;;;;;4.07;3.60;;;23.20;99.90;;;;;;5059174;28;20197;-70
2021/07/15 03:51:15;;;;;;;4.22;3.90;;;23.20;99.90;;;;;;5069874;28;20201;-70
2021/07/15 03:53:45;;;;;;;4.60;3.72;;;23.20;99.90;;;;;;5056230;28;20193;-71
2021/07/15 03:56:14;;;;;;;4.60;4.20;;;23.20;99.90;;;;;;5069034;28;20212;-71
2021/07/15 03:58:44;;;;;;;5.43;4.93;;;23.20;99.90;;;;;;5069729;28;20565;-70
2021/07/15 04:01:13;;;;;;;7.10;4.32;;;23.20;99.90;;;;;;5069582;28;20216;-72
2021/07/15 04:03:43;;;;;;;4.70;4.00;;;23.20;99.90;;;;;;5099777;28;20204;-71
2021/07/15 04:06:12;;;;;;;4.13;3.63;;;23.20;99.90;;;;;;5055888;28;20244;-71
2021/07/15 04:08:42;;;;;;;5.55;3.85;;;23.30;99.90;;;;;;5062243;28;20189;-71
2021/07/15 04:11:10;;;;;;;3.83;3.53;;;23.40;99.90;;;;;;5098291;28;20260;-71
2021/07/15 04:13:42;;;;;;;3.70;3.22;;;23.40;99.90;;;;;;5068754;28;20224;-71
2021/07/15 04:16:19;;;;;;;5.45;4.20;;;23.40;99.90;;;;;;5100779;28;20762;-71
2021/07/15 04:18:48;;;;;;;6.00;4.20;;;23.50;99.90;;;;;;5100157;28;20208;-71
2021/07/15 04:21:15;;;;;;;3.92;3.63;;;23.50;99.90;;;;;;5101705;28;20197;-71
2021/07/15 04:23:43;;;;;;;7.10;4.47;;;23.50;99.90;;;;;;5060647;28;20193;-71
2021/07/15 04:26:11;;;;;;;6.20;4.25;;;23.50;99.90;;;;;;5058367;28;20196;-71
2021/07/15 04:28:40;;;;;;;4.63;4.13;;;23.50;99.90;;;;;;5067676;28;20193;-71
2021/07/15 04:31:30;;;;;;;4.63;3.60;;;23.50;99.90;;;;;;5069285;28;20190;-71
2021/07/15 04:34:00;;;;;;;4.97;4.30;;;23.50;99.90;;;;;;5088467;28;20604;-71
2021/07/15 04:36:31;;;;;;;5.30;4.80;;;23.50;99.90;;;;;;5068543;28;20512;-71
2021/07/15 04:38:58;;;;;;;6.20;4.55;;;23.50;99.90;;;;;;5099205;28;20232;-71
2021/07/15 04:41:26;;;;;;;4.03;3.72;;;23.50;99.90;;;;;;5068766;28;20511;-71
2021/07/15 04:43:58;;;;;;;6.68;4.40;;;23.60;99.90;;;;;;5101307;28;20208;-71
2021/07/15 04:46:26;;;;;;;5.50;4.13;;;23.60;99.90;;;;;;5068134;28;20205;-71
2021/07/15 04:48:53;;;;;;;4.63;4.22;;;23.60;99.90;;;;;;5056963;28;20536;-71
2021/07/15 04:51:23;;;;;;;6.15;4.22;;;23.70;99.90;;;;;;5068917;28;20193;-71
2021/07/15 04:53:50;;;;;;;4.00;3.70;;;23.70;99.90;;;;;;5060357;28;20229;-71
2021/07/15 04:56:17;;;;;;;4.30;3.90;;;23.80;99.90;;;;;;5100679;28;20193;-70
2021/07/15 04:58:46;;;;;;;6.82;3.97;;;23.80;99.90;;;;;;5067880;28;20201;-71
2021/07/15 05:01:14;;;;;;;3.90;3.60;;;23.90;99.90;;;;;;5068836;28;20224;-71
2021/07/15 05:03:41;;;;;;;3.67;3.47;;;23.90;99.90;;;;;;5067223;28;20289;-71
2021/07/15 05:06:09;;;;;;;3.60;3.30;;;23.90;99.90;;;;;;5063094;28;20193;-71
2021/07/15 05:08:37;;;;;;;4.38;3.85;;;24.10;99.90;;;;;;5066394;28;20258;-71
2021/07/15 05:11:04;;;;;;;4.05;3.70;;;24.10;99.90;;;;;;5062640;28;20235;-71
2021/07/15 05:13:31;;;;;;;3.80;3.50;;;24.20;99.90;;;;;;5067256;28;20228;-71
2021/07/15 05:15:58;;;;;;;3.47;3.17;;;24.30;99.90;;;;;;5061432;28;20202;-71
2021/07/15 05:18:26;;;;;;;4.68;3.40;;;24.30;99.90;;;;;;5055606;28;20676;-71
2021/07/15 05:20:53;;;;;;;4.28;3.33;;;24.40;99.90;;;;;;5066315;28;20232;-71
2021/07/15 05:23:20;;;;;;;5.60;4.10;;;24.50;99.90;;;;;;5066816;28;20553;-71
2021/07/15 05:25:47;;;;;;;3.92;3.63;;;24.50;99.90;;;;;;5067682;28;20201;-71
2021/07/15 05:28:15;;;;;;;6.45;4.25;;;24.60;99.90;;;;;;5099436;28;20212;-71
2021/07/15 05:30:42;;;;;;;5.35;4.25;;;24.70;99.90;;;;;;5100115;28;20235;-71
2021/07/15 05:33:09;;;;;;;4.10;3.70;;;24.70;99.90;;;;;;5067352;28;20220;-71
2021/07/15 05:35:38;;;;;;;4.32;3.95;;;24.90;99.90;;;;;;5066059;28;20254;-71
2021/07/15 05:38:05;;;;;;;5.68;4.82;;;25.00;99.90;;;;;;5066597;28;20197;-71
2021/07/15 05:40:33;;;;;;;4.82;4.25;;;25.10;99.90;;;;;;5090811;28;20602;-71
2021/07/15 05:43:00;;;;;;;3.80;3.50;;;25.10;99.90;;;;;;5060614;28;21090;-71
2021/07/15 05:45:27;;;;;;;4.47;3.83;;;25.20;99.90;;;;;;5065723;28;20675;-71
2021/07/15 05:47:54;;;;;;;4.25;3.90;;;25.30;99.90;;;;;;5060510;28;20201;-71
2021/07/15 05:50:22;;;;;;;3.78;3.25;;;25.30;99.90;;;;;;5089986;28;20551;-71
2021/07/15 05:52:50;;;;;;;3.40;3.17;;;25.40;99.90;;;;;;5047918;28;20317;-71
2021/07/15 05:55:17;;;;;;;4.30;3.90;;;25.60;99.90;;;;;;5066056;28;20205;-71
2021/07/15 05:57:44;;;;;;;3.80;3.47;;;25.70;99.90;;;;;;5057810;28;20213;-71
2021/07/15 06:00:14;;;;;;;3.42;3.17;;;25.80;99.90;;;;;;5061420;28;20665;-71
2021/07/15 06:02:41;;;;;;;3.78;3.50;;;25.90;99.90;;;;;;5061377;28;20186;-71
2021/07/15 06:05:09;;;;;;;5.00;3.40;;;26.10;99.90;;;;;;5062240;28;20557;-71
2021/07/15 06:07:37;;;;;;;3.80;3.50;;;26.20;99.90;;;;;;5058922;28;20190;-71
2021/07/15 06:10:07;;;;;;;3.33;3.05;;;26.40;99.90;;;;;;5057910;28;20553;-71
2021/07/15 06:12:34;;;;;;;3.85;2.80;;;26.70;99.90;;;;;;5056353;28;20593;-71
2021/07/15 06:15:01;;;;;;;3.25;3.05;;;27.20;99.90;;;;;;5086501;28;20212;-71
2021/07/15 06:17:28;;;;;;;3.42;3.10;;;28.20;99.90;;;;;;5055504;28;20670;-71
2021/07/15 06:19:55;;;;;;;3.38;2.92;;;29.40;99.90;;;;;;5083609;28;20217;-72
2021/07/15 06:22:22;;;;;;;3.25;3.05;;;30.70;99.90;;;;;;5059192;28;20210;-70
2021/07/15 06:24:49;;;;;;;3.75;3.42;;;31.90;99.90;;;;;;5059681;28;20271;-71
2021/07/15 06:27:17;;;;;;;3.83;2.90;;;33.00;99.90;;;;;;5096483;27;20190;-71
2021/07/15 06:29:44;;;;;;;4.90;2.95;;;34.30;99.90;;;;;;5069208;28;20200;-71
2021/07/15 06:32:11;;;;;;;4.88;3.55;;;35.40;99.90;;;;;;5057412;28;20691;-71
2021/07/15 06:34:38;;;;;;;3.80;3.10;;;36.40;98.30;;;;;;5069801;28;20201;-71
2021/07/15 06:37:08;;;;;;;3.20;2.97;;;37.50;95.30;;;;;;5057830;28;20553;-71
2021/07/15 06:39:36;;;;;;;3.20;2.90;;;38.60;92.60;;;;;;5068842;28;20300;-71
2021/07/15 06:42:04;;;;;;;3.05;2.80;;;39.50;87.80;;;;;;5055337;28;20213;-71
2021/07/15 06:44:32;;;;;;;3.75;2.50;;;40.30;83.10;;;;;;5046917;28;20193;-73
2021/07/15 06:46:59;;;;;;;4.15;2.72;;;40.90;79.20;;;;;;5097769;28;20676;-72
2021/07/15 06:49:27;;;;;;;3.70;3.40;;;41.40;75.00;;;;;;5063929;28;20229;-73
2021/07/15 06:51:55;;;;;;;3.17;2.97;;;41.80;71.80;;;;;;5064704;28;20205;-73
2021/07/15 06:54:22;;;;;;;3.88;3.55;;;42.20;69.40;;;;;;5063795;28;20542;-73
2021/07/15 06:56:49;;;;;;;3.00;2.70;;;41.90;67.00;;;;;;5059058;28;20649;-73
2021/07/15 06:59:16;;;;;;;3.10;2.78;;;41.00;67.40;;;;;;5065102;28;20361;-73
2021/07/15 07:01:45;;;;;;;3.33;3.13;;;39.90;68.70;;;;;;5057776;28;20204;-72
2021/07/15 07:04:12;;;;;;;3.40;3.20;;;39.00;70.20;;;;;;5094171;28;20189;-68
2021/07/15 07:06:39;;;;;;;3.50;3.30;;;38.90;70.50;;;;;;5062552;28;20205;-72
2021/07/15 07:09:06;;;;;;;4.55;3.67;;;39.30;69.00;;;;;;5061787;28;20193;-72
2021/07/15 07:11:33;;;;;;;3.97;3.60;;;39.70;67.90;;;;;;5057712;28;20228;-72
2021/07/15 07:14:00;;;;;;;4.07;3.78;;;40.10;65.90;;;;;;5060765;28;20208;-73
2021/07/15 07:16:27;;;;;;;4.05;3.75;;;40.40;64.70;;;;;;5065372;28;20201;-73
2021/07/15 07:18:56;;;;;;;4.68;4.28;;;40.50;62.70;;;;;;5050894;28;20345;-72
2021/07/15 07:21:23;;;;;;;4.50;4.10;;;40.40;61.70;;;;;;5058637;28;20287;-73
2021/07/15 07:23:50;;;;;;;4.25;3.85;;;40.60;61.10;;;;;;5092713;28;20184;-73
2021/07/15 07:26:17;;;;;;;5.40;3.55;;;41.00;60.20;;;;;;5062003;28;20201;-73
2021/07/15 07:28:44;;;;;;;4.78;4.28;;;41.40;59.10;;;;;;5060443;28;20200;-73
2021/07/15 07:31:11;;;;;;;3.58;3.28;;;41.50;58.00;;;;;;5064859;28;20215;-72
2021/07/15 07:33:38;;;;;;;4.22;3.88;;;40.70;58.40;;;;;;5061072;28;20224;-72
2021/07/15 07:36:06;;;;;;;4.40;3.97;;;39.90;59.30;;;;;;5063357;28;20201;-73
2021/07/15 07:38:33;;;;;;;4.97;4.03;;;39.10;60.30;;;;;;5061907;28;20192;-73
2021/07/15 07:41:00;;;;;;;5.32;3.80;;;38.50;61.40;;;;;;5061932;28;20555;-74
2021/07/15 07:43:28;;;;;;;4.15;3.65;;;38.10;62.00;;;;;;5065238;28;20208;-72
2021/07/15 07:45:55;;;;;;;3.70;3.40;;;37.60;62.30;;;;;;5058252;28;20211;-74
2021/07/15 07:48:22;;;;;;;4.28;3.30;;;37.30;62.80;;;;;;5062138;28;20611;-72
2021/07/15 07:50:49;;;;;;;4.70;3.83;;;37.00;63.40;;;;;;5061243;28;20197;-72
2021/07/15 07:53:18;;;;;;;5.53;3.30;;;36.70;63.80;;;;;;5058999;28;20212;-69
2021/07/15 07:55:45;;;;;;;3.92;3.63;;;36.50;64.20;;;;;;5055770;28;20196;-72
2021/07/15 07:58:13;;;;;;;6.32;3.88;;;36.20;64.30;;;;;;5058925;28;20214;-73
2021/07/15 08:00:40;;;;;;;4.20;3.90;;;36.10;64.50;;;;;;5057753;28;20599;-72
2021/07/15 08:03:07;;;;;;;5.85;3.92;;;36.10;64.70;;;;;;5054887;28;20185;-72
2021/07/15 08:05:38;;;;;;;3.63;3.40;;;36.20;65.10;;;;;;5076163;28;20212;-73
2021/07/15 08:08:05;;;;;;;5.25;3.67;;;36.40;63.90;;;;;;5081451;28;20672;-72
2021/07/15 08:10:34;;;;;;;4.55;3.60;;;36.50;63.60;;;;;;5057384;28;20207;-72
2021/07/15 08:13:01;;;;;;;6.35;3.50;;;36.60;63.60;;;;;;5058562;28;20216;-72
2021/07/15 08:15:28;;;;;;;3.38;3.03;;;36.70;63.70;;;;;;5092725;27;20805;-72
2021/07/15 08:17:55;;;;;;;3.67;3.38;;;36.60;64.00;;;;;;5059461;28;20201;-73
2021/07/15 08:20:23;;;;;;;4.18;3.88;;;36.50;64.30;;;;;;5063271;28;20358;-72
2021/07/15 08:22:50;;;;;;;5.15;4.28;;;36.40;64.70;;;;;;5061976;28;20668;-71
2021/07/15 08:25:19;;;;;;;4.63;4.20;;;36.40;65.00;;;;;;5057101;28;20553;-72
2021/07/15 08:27:48;;;;;;;4.80;4.10;;;36.40;64.80;;;;;;5064216;28;20231;-73
2021/07/15 08:30:17;;;;;;;7.15;4.15;;;36.40;64.70;;;;;;5062083;28;20193;-71
2021/07/15 08:32:44;;;;;;;4.18;3.63;;;36.50;64.70;;;;;;5057369;28;20200;-72
2021/07/15 08:35:11;;;;;;;4.13;3.78;;;36.50;64.60;;;;;;5062888;28;20185;-72
2021/07/15 08:37:38;;;;;;;3.65;3.35;;;36.50;64.70;;;;;;5058934;28;20201;-68
2021/07/15 08:40:08;;;;;;;3.90;3.60;;;36.50;64.70;;;;;;5062548;28;20207;-72
2021/07/15 08:42:38;;;;;;;5.32;3.25;;;36.40;64.50;;;;;;5057794;28;20625;-74
2021/07/15 08:45:09;;;;;;;6.68;3.85;;;36.40;64.40;;;;;;5090981;28;20192;-73
2021/07/15 08:47:38;;;;;;;3.88;3.50;;;36.40;64.00;;;;;;5061574;28;20212;-73
2021/07/15 08:50:06;;;;;;;4.65;3.42;;;36.40;63.90;;;;;;5058776;28;20192;-73
2021/07/15 08:52:34;;;;;;;3.88;3.53;;;36.40;63.90;;;;;;5057115;28;20561;-73
2021/07/15 08:55:15;;;;;;;3.67;3.40;;;36.50;63.70;;;;;;5055153;28;20208;-73
2021/07/15 08:57:42;;;;;;;4.70;3.75;;;36.50;63.40;;;;;;5056585;28;20293;-73
2021/07/15 09:00:16;;;;;;;4.50;4.10;;;36.50;63.50;;;;;;5054932;28;20575;-73
2021/07/15 09:02:44;;;;;;;4.22;3.80;;;36.50;63.30;;;;;;5053670;28;20204;-72
2021/07/15 09:05:13;;;;;;;7.07;4.15;;;36.60;63.20;;;;;;5056915;28;20189;-73
2021/07/15 09:07:44;;;;;;;4.88;4.15;;;36.70;62.90;;;;;;5059189;28;20280;-73
2021/07/15 09:10:11;;;;;;;4.78;3.92;;;36.70;62.90;;;;;;5056827;28;20201;-72
2021/07/15 09:12:39;;;;;;;4.85;4.22;;;36.70;62.80;;;;;;5056703;28;20229;-72
2021/07/15 09:15:08;;;;;;;5.95;4.57;;;36.70;62.70;;;;;;5058820;28;20220;-73
2021/07/15 09:17:37;;;;;;;5.90;3.83;;;36.80;62.40;;;;;;5054999;28;20645;-73
2021/07/15 09:20:07;;;;;;;4.00;3.58;;;36.90;62.20;;;;;;5059356;28;20231;-73
2021/07/15 09:22:34;;;;;;;5.38;4.03;;;37.00;62.10;;;;;;5060045;28;20204;-74
2021/07/15 09:25:01;;;;;;;4.55;3.92;;;37.10;62.00;;;;;;5055251;28;20211;-74
2021/07/15 09:27:30;;;;;;;3.92;3.63;;;37.30;61.20;;;;;;5051657;28;20385;-73
2021/07/15 09:30:09;;;;;;;4.50;4.20;;;37.40;60.90;;;;;;5064329;28;20319;-73
2021/07/15 09:32:50;;;;;;;3.80;3.50;;;37.60;60.40;;;;;;5060785;28;20288;-73
2021/07/15 09:35:30;;;;;;;7.00;4.00;;;37.80;60.00;;;;;;5050032;28;20216;-72
2021/07/15 09:38:08;;;;;;;3.95;3.53;;;38.10;59.40;;;;;;5066988;28;20619;-72
2021/07/15 09:40:43;;;;;;;6.40;4.13;;;38.50;58.70;;;;;;5066306;28;20652;-72
2021/07/15 09:43:15;;;;;;;6.90;3.78;;;38.80;58.30;;;;;;5067429;28;20192;-72
2021/07/15 09:45:42;;;;;;;7.15;3.75;;;39.20;57.10;;;;;;5066723;28;20200;-73
2021/07/15 09:48:19;;;;;;;7.35;4.25;;;39.50;57.10;;;;;;5066066;28;20197;-71
2021/07/15 09:50:46;;;;;;;5.38;4.32;;;39.90;55.20;;;;;;5097594;27;20200;-73
2021/07/15 09:53:20;;;;;;;3.80;3.50;;;40.20;54.70;;;;;;5058871;28;20356;-73
2021/07/15 09:55:48;;;;;;;4.03;3.70;;;40.60;54.20;;;;;;5065237;28;20201;-72
2021/07/15 09:58:15;;;;;;;5.57;3.75;;;41.00;53.00;;;;;;5094499;28;20204;-72
2021/07/15 10:00:43;;;;;;;3.97;3.67;;;41.40;51.90;;;;;;5065958;28;20283;-72
2021/07/15 10:03:12;;;;;;;3.58;3.38;;;41.90;51.20;;;;;;5062150;28;20222;-71
2021/07/15 10:05:50;;;;;;;3.75;3.45;;;42.40;50.60;;;;;;5063662;28;20193;-71
2021/07/15 10:08:25;;;;;;;4.20;3.80;;;42.80;49.60;;;;;;5062689;28;20246;-70
2021/07/15 10:10:52;;;;;;;4.60;4.10;;;43.20;48.30;;;;;;5063529;28;20314;-71
2021/07/15 10:13:21;;;;;;;4.35;3.70;;;43.70;47.20;;;;;;5066510;28;20592;-71
2021/07/15 10:15:50;;;;;;;4.50;3.97;;;44.00;46.10;;;;;;5061780;28;20206;-72
2021/07/15 10:18:36;;;;;;;4.85;3.60;;;44.40;45.00;;;;;;5060863;28;20221;-71
2021/07/15 10:21:05;;;;;;;4.05;3.75;;;44.60;43.80;;;;;;5078281;28;20269;-71
2021/07/15 10:23:34;;;;;;;5.13;3.50;;;44.20;43.30;;;;;;5067340;28;20196;-71
2021/07/15 10:26:02;;;;;;;4.95;3.80;;;43.80;43.70;;;;;;5099041;27;20207;-72
2021/07/15 10:28:29;;;;;;;4.10;3.80;;;43.20;44.00;;;;;;5094558;28;20193;-72
2021/07/15 10:31:01;;;;;;;4.22;3.83;;;42.50;44.30;;;;;;5061590;28;20673;-72
2021/07/15 10:33:30;;;;;;;3.45;3.15;;;41.80;44.80;;;;;;5064580;28;20273;-71
2021/07/15 10:35:58;;;;;;;3.50;3.30;;;41.20;45.30;;;;;;5061868;28;20223;-72
2021/07/15 10:38:29;;;;;;;2.90;2.70;;;40.70;45.80;;;;;;5065467;28;20189;-72
2021/07/15 10:40:56;;;;;;;3.58;3.35;;;40.40;46.30;;;;;;5060781;28;20196;-72
2021/07/15 10:43:23;;;;;;;3.45;3.25;;;40.10;46.60;;;;;;5066591;28;20602;-72
2021/07/15 10:45:52;;;;;;;3.20;2.90;;;39.90;46.90;;;;;;5064682;28;20593;-72
2021/07/15 10:48:20;;;;;;;4.47;3.45;;;40.00;47.10;;;;;;5060917;28;20548;-72
2021/07/15 10:50:47;;;;;;;3.72;3.42;;;40.20;46.70;;;;;;5062035;28;20277;-72
2021/07/15 10:53:15;;;;;;;5.60;3.20;;;39.90;46.70;;;;;;5064509;28;20208;-72
2021/07/15 10:55:44;;;;;;;3.10;2.90;;;39.60;47.10;;;;;;5066099;28;20916;-72
2021/07/15 10:58:12;;;;;;;3.28;2.97;;;39.60;47.30;;;;;;5056746;28;20211;-72
2021/07/15 11:00:50;;;;;;;4.32;2.90;;;39.60;47.40;;;;;;5057676;28;20193;-72
2021/07/15 11:03:22;;;;;;;2.70;2.60;;;39.70;47.50;;;;;;5063044;28;20197;-72
2021/07/15 11:05:51;;;;;;;5.82;3.30;;;40.00;47.20;;;;;;5095366;27;20197;-72
2021/07/15 11:08:19;;;;;;;3.00;2.80;;;40.40;46.60;;;;;;5061522;28;20946;-72
2021/07/15 11:10:59;;;;;;;3.40;3.10;;;40.80;46.20;;;;;;5055008;28;20232;-71
2021/07/15 11:13:28;;;;;;;3.33;3.00;;;40.90;45.90;;;;;;5065066;28;20196;-71
2021/07/15 11:15:56;;;;;;;2.88;2.60;;;40.80;45.80;;;;;;5087168;28;20185;-71
2021/07/15 11:18:48;;;;;;;4.13;3.30;;;40.80;45.70;;;;;;5092727;27;20673;-72
2021/07/15 11:21:31;;;;;;;3.53;3.00;;;40.70;45.50;;;;;;5064218;28;20201;-72
2021/07/15 11:24:31;;;;;;;5.50;3.53;;;40.60;45.70;;;;;;5064623;28;20211;-71
2021/07/15 11:27:31;;;;;;;4.20;3.42;;;40.50;45.50;;;;;;5060253;28;20402;-72
2021/07/15 11:29:59;;;;;;;3.70;3.40;;;40.30;45.60;;;;;;5061245;28;20533;-70
2021/07/15 11:32:27;;;;;;;3.70;3.17;;;40.10;45.60;;;;;;5059936;28;20192;-71
2021/07/15 11:34:55;;;;;;;5.47;3.75;;;40.10;45.60;;;;;;5063885;28;20231;-71
2021/07/15 11:37:41;;;;;;;6.50;4.10;;;40.00;45.40;;;;;;5064709;28;20193;-72
2021/07/15 11:40:42;;;;;;;4.28;3.88;;;40.00;45.60;;;;;;5061609;28;20220;-72
2021/07/15 11:43:29;;;;;;;4.82;3.83;;;39.80;45.70;;;;;;5062677;28;20224;-71
2021/07/15 11:46:18;;;;;;;5.50;3.78;;;39.60;46.00;;;;;;5065083;28;20284;-71
2021/07/15 11:49:10;;;;;;;6.97;3.65;;;39.60;46.20;;;;;;5059614;28;20208;-71
2021/07/15 11:51:43;;;;;;;6.85;3.92;;;39.70;46.30;;;;;;5058793;28;20288;-71
2021/07/15 11:54:43;;;;;;;4.38;3.72;;;40.30;46.30;;;;;;5060590;28;20777;-71
2021/07/15 11:57:29;;;;;;;7.38;4.45;;;40.40;45.90;;;;;;5058703;28;20277;-70
2021/07/15 12:00:22;;;;;;;3.97;3.60;;;40.70;45.40;;;;;;5063328;28;20683;-71
2021/07/15 12:02:56;;;;;;;4.57;3.40;;;40.80;45.20;;;;;;5093069;28;20216;-71
2021/07/15 12:05:28;;;;;;;4.85;3.95;;;41.00;45.00;;;;;;5060588;28;20206;-71
2021/07/15 12:08:07;;;;;;;4.32;3.88;;;41.30;44.90;;;;;;5053081;28;20197;-72
2021/07/15 12:10:38;;;;;;;5.50;4.20;;;41.60;44.50;;;;;;5056369;28;20254;-71
2021/07/15 12:13:07;;;;;;;4.97;3.90;;;41.50;44.30;;;;;;5063597;28;20223;-72
2021/07/15 12:15:36;;;;;;;5.57;4.00;;;41.20;44.60;;;;;;5055267;28;20223;-71
2021/07/15 12:18:10;;;;;;;4.47;3.67;;;41.10;44.80;;;;;;5064310;28;20201;-71
2021/07/15 12:20:39;;;;;;;4.35;3.95;;;41.00;44.60;;;;;;5065231;28;20189;-71
2021/07/15 12:23:10;;;;;;;4.40;4.00;;;41.00;44.70;;;;;;5059367;28;20212;-71
2021/07/15 12:25:38;;;;;;;4.95;4.45;;;40.90;44.70;;;;;;5060237;28;20207;-71
2021/07/15 12:28:08;;;;;;;4.05;3.65;;;41.00;44.90;;;;;;5057547;28;20211;-71
2021/07/15 12:30:44;;;;;;;4.70;3.53;;;41.00;45.00;;;;;;5062474;28;20189;-72
2021/07/15 12:33:13;;;;;;;4.38;3.58;;;41.00;44.70;;;;;;5060978;28;20698;-71
2021/07/15 12:35:40;;;;;;;4.35;3.90;;;40.90;44.60;;;;;;5064729;28;20217;-72
2021/07/15 12:38:20;;;;;;;4.20;3.92;;;40.60;44.80;;;;;;5063841;28;20265;-72
2021/07/15 12:40:48;;;;;;;5.80;4.00;;;40.30;45.10;;;;;;5059993;28;20591;-71
2021/07/15 12:43:21;;;;;;;4.55;4.03;;;39.90;45.10;;;;;;5055458;28;20518;-71
2021/07/15 12:45:50;;;;;;;6.43;4.57;;;39.50;46.20;;;;;;5092250;27;20205;-71
2021/07/15 12:48:21;;;;;;;8.20;4.57;;;39.10;46.00;;;;;;5085781;28;20285;-72
2021/07/15 12:50:51;;;;;;;6.05;4.60;;;38.80;46.30;;;;;;5059647;28;20269;-72
2021/07/15 12:53:21;;;;;;;4.43;3.22;;;38.40;46.50;;;;;;5062820;28;20378;-72
2021/07/15 12:55:49;;;;;;;4.97;3.88;;;38.10;46.80;;;;;;5058502;28;20327;-71
2021/07/15 12:58:17;;;;;;;6.63;3.75;;;37.70;46.70;;;;;;5057179;28;20193;-72
2021/07/15 13:00:45;;;;;;;6.15;3.72;;;37.50;46.50;;;;;;5056828;28;20200;-73
2021/07/15 13:03:13;;;;;;;6.32;3.45;;;37.20;46.70;;;;;;5059849;28;20197;-72